Time;durP1;ratioP1;P1;durP2;ratioP2;P2;SDS_P1;SDS_P2;PMS_P1;PMS_P2;Temp;Humidity;BMP_temperature;BMP_pressure;BME280_temperature;BME280_humidity;BME280_pressure;Samples;Min_cycle;Max_cycle;Signal;HPM_P1;HPM_P2
2021/06/24 00:00:49;;;;;;;17.67;6.55;;;;;;;;;;5054437;28;20017;-87
2021/06/24 00:03:15;;;;;;;11.25;6.65;;;;;;;;;;5053062;28;20419;-87
2021/06/24 00:05:40;;;;;;;18.30;6.50;;;;;;;;;;5052783;28;20104;-87
2021/06/24 00:08:06;;;;;;;14.30;6.60;;;;;;;;;;5052811;28;20067;-87
2021/06/24 00:10:32;;;;;;;16.58;6.25;;;;;;;;;;5052839;28;20104;-87
2021/06/24 00:12:57;;;;;;;16.65;6.40;;;;;;;;;;5052884;28;20550;-86
2021/06/24 00:15:22;;;;;;;15.80;6.38;;;;;;;;;;5053112;28;20044;-87
2021/06/24 00:17:47;;;;;;;13.45;6.28;;;;;;;;;;5052834;28;20041;-87
2021/06/24 00:20:13;;;;;;;16.65;6.72;;;;;;;;;;5052281;28;20055;-86
2021/06/24 00:22:38;;;;;;;18.13;6.57;;;;;;;;;;5052095;28;20052;-87
2021/06/24 00:25:04;;;;;;;19.63;6.70;;;;;;;;;;5054666;28;20028;-87
2021/06/24 00:27:29;;;;;;;18.42;6.78;;;;;;;;;;5052968;28;20028;-87
2021/06/24 00:29:54;;;;;;;15.30;7.03;;;;;;;;;;5052582;28;20116;-86
2021/06/24 00:32:19;;;;;;;15.93;6.82;;;;;;;;;;5053210;28;20614;-87
2021/06/24 00:34:44;;;;;;;20.77;6.57;;;;;;;;;;5053061;28;20024;-86
2021/06/24 00:37:10;;;;;;;12.05;7.13;;;;;;;;;;5052985;28;20090;-87
2021/06/24 00:39:35;;;;;;;18.45;6.57;;;;;;;;;;5052900;28;20009;-86
2021/06/24 00:42:00;;;;;;;16.83;6.97;;;;;;;;;;5052715;28;20427;-87
2021/06/24 00:44:26;;;;;;;21.52;6.57;;;;;;;;;;5052705;28;20057;-86
2021/06/24 00:46:52;;;;;;;16.90;6.22;;;;;;;;;;5052890;28;20017;-87
2021/06/24 00:49:17;;;;;;;23.20;6.75;;;;;;;;;;5052809;28;20070;-87
2021/06/24 00:51:42;;;;;;;13.68;6.63;;;;;;;;;;5052664;28;20013;-86
2021/06/24 00:54:08;;;;;;;18.17;7.30;;;;;;;;;;5052836;28;20059;-87
2021/06/24 00:56:33;;;;;;;17.33;7.25;;;;;;;;;;5051564;28;20039;-87
2021/06/24 00:59:02;;;;;;;12.05;6.65;;;;;;;;;;5054105;28;20021;-87
2021/06/24 01:01:29;;;;;;;14.55;6.75;;;;;;;;;;5052462;28;20064;-86
2021/06/24 01:03:54;;;;;;;10.75;6.15;;;;;;;;;;5052523;28;20085;-87
2021/06/24 01:06:19;;;;;;;16.42;6.93;;;;;;;;;;5052590;28;20103;-87
2021/06/24 01:08:44;;;;;;;16.52;6.88;;;;;;;;;;5052203;28;20017;-87
2021/06/24 01:11:10;;;;;;;14.73;6.70;;;;;;;;;;5052196;28;20028;-87
2021/06/24 01:13:35;;;;;;;16.08;6.22;;;;;;;;;;5052146;28;20021;-87
2021/06/24 01:16:00;;;;;;;9.80;6.50;;;;;;;;;;5050161;28;20024;-86
2021/06/24 01:18:25;;;;;;;16.25;6.53;;;;;;;;;;5051638;28;20083;-87
2021/06/24 01:20:51;;;;;;;16.15;6.80;;;;;;;;;;5051730;28;20024;-87
2021/06/24 01:23:16;;;;;;;18.00;6.35;;;;;;;;;;5051492;28;20013;-87
2021/06/24 01:25:41;;;;;;;14.20;6.55;;;;;;;;;;5051878;28;20032;-87
2021/06/24 01:28:08;;;;;;;12.00;6.93;;;;;;;;;;5051367;28;20013;-86
2021/06/24 01:30:34;;;;;;;14.30;6.43;;;;;;;;;;5051581;28;20025;-87
2021/06/24 01:32:59;;;;;;;13.98;6.75;;;;;;;;;;5051201;28;20021;-86
2021/06/24 01:35:26;;;;;;;15.32;6.63;;;;;;;;;;5052094;28;20126;-87
2021/06/24 01:37:55;;;;;;;17.92;7.35;;;;;;;;;;5051833;28;20027;-86
2021/06/24 01:40:21;;;;;;;16.45;7.63;;;;;;;;;;5051617;28;20013;-86
2021/06/24 01:42:46;;;;;;;17.40;7.05;;;;;;;;;;5051689;28;20031;-86
2021/06/24 01:45:12;;;;;;;14.57;7.25;;;;;;;;;;5051544;28;20029;-86
2021/06/24 01:47:37;;;;;;;18.73;7.35;;;;;;;;;;5053056;28;20102;-86
2021/06/24 01:50:03;;;;;;;12.13;6.50;;;;;;;;;;5052741;28;20016;-86
2021/06/24 01:52:29;;;;;;;13.57;6.90;;;;;;;;;;5051357;28;20545;-87
2021/06/24 01:54:54;;;;;;;16.55;6.90;;;;;;;;;;5051402;28;20072;-86
2021/06/24 01:57:19;;;;;;;16.92;7.50;;;;;;;;;;5051552;28;20074;-86
2021/06/24 01:59:45;;;;;;;13.20;6.45;;;;;;;;;;5051442;28;20091;-86
2021/06/24 02:02:10;;;;;;;13.20;5.88;;;;;;;;;;5051295;28;20033;-86
2021/06/24 02:04:35;;;;;;;10.02;6.60;;;;;;;;;;5051573;28;20031;-86
2021/06/24 02:07:00;;;;;;;11.30;6.40;;;;;;;;;;5050721;28;20443;-86
2021/06/24 02:09:26;;;;;;;15.43;6.63;;;;;;;;;;5051120;28;20024;-86
2021/06/24 02:11:55;;;;;;;18.60;6.68;;;;;;;;;;5051070;28;20044;-86
2021/06/24 02:14:20;;;;;;;15.57;7.10;;;;;;;;;;5051410;28;20468;-86
2021/06/24 02:16:45;;;;;;;20.70;6.50;;;;;;;;;;5052193;28;20067;-86
2021/06/24 02:19:10;;;;;;;15.57;6.72;;;;;;;;;;5051269;28;20096;-86
2021/06/24 02:21:36;;;;;;;9.57;6.63;;;;;;;;;;5051263;28;20045;-86
2021/06/24 02:24:01;;;;;;;14.15;6.80;;;;;;;;;;5052118;28;20033;-87
2021/06/24 02:26:26;;;;;;;12.88;6.53;;;;;;;;;;5051170;28;20017;-86
2021/06/24 02:28:51;;;;;;;17.75;6.68;;;;;;;;;;5052536;28;20021;-86
2021/06/24 02:31:16;;;;;;;15.27;6.40;;;;;;;;;;5052313;28;20036;-87
2021/06/24 02:33:43;;;;;;;20.05;6.82;;;;;;;;;;5050839;28;20602;-86
2021/06/24 02:36:08;;;;;;;12.65;6.45;;;;;;;;;;5050733;28;20472;-86
2021/06/24 02:38:33;;;;;;;15.77;6.15;;;;;;;;;;5051027;28;20020;-86
2021/06/24 02:40:59;;;;;;;21.25;6.72;;;;;;;;;;5050870;28;20025;-86
2021/06/24 02:43:24;;;;;;;16.45;6.88;;;;;;;;;;5052096;28;20033;-86
2021/06/24 02:45:49;;;;;;;13.20;6.40;;;;;;;;;;5051012;28;20075;-86
2021/06/24 02:48:14;;;;;;;13.43;6.43;;;;;;;;;;5050745;28;20024;-86
2021/06/24 02:50:40;;;;;;;11.60;6.50;;;;;;;;;;5051154;28;20020;-86
2021/06/24 02:53:05;;;;;;;14.43;6.38;;;;;;;;;;5050619;28;20074;-87
2021/06/24 02:55:30;;;;;;;12.68;6.63;;;;;;;;;;5050924;28;20029;-86
2021/06/24 02:57:59;;;;;;;13.00;6.65;;;;;;;;;;5050702;28;20321;-85
2021/06/24 03:00:24;;;;;;;17.83;6.97;;;;;;;;;;5051132;28;20051;-87
2021/06/24 03:02:50;;;;;;;19.35;6.93;;;;;;;;;;5050692;28;20469;-86
2021/06/24 03:05:15;;;;;;;10.32;5.68;;;;;;;;;;5050774;28;20021;-86
2021/06/24 03:07:40;;;;;;;17.65;6.72;;;;;;;;;;5050761;28;20055;-87
2021/06/24 03:10:06;;;;;;;18.42;7.03;;;;;;;;;;5050704;28;20021;-86
2021/06/24 03:12:32;;;;;;;17.08;7.03;;;;;;;;;;5050780;28;20120;-86
2021/06/24 03:14:57;;;;;;;16.80;7.07;;;;;;;;;;5050570;28;20166;-86
2021/06/24 03:17:22;;;;;;;14.32;6.88;;;;;;;;;;5050725;28;20507;-86
2021/06/24 03:19:47;;;;;;;14.50;6.55;;;;;;;;;;5053640;28;20060;-86
2021/06/24 03:22:12;;;;;;;13.52;6.93;;;;;;;;;;5054329;28;20053;-87
2021/06/24 03:24:38;;;;;;;15.70;6.95;;;;;;;;;;5054742;28;20049;-86
2021/06/24 03:27:03;;;;;;;12.60;6.80;;;;;;;;;;5054606;28;20051;-86
2021/06/24 03:29:29;;;;;;;12.48;6.43;;;;;;;;;;5055705;28;20436;-86
2021/06/24 03:31:54;;;;;;;12.07;6.75;;;;;;;;;;5054484;28;20406;-86
2021/06/24 03:34:19;;;;;;;12.85;6.78;;;;;;;;;;5054198;28;20032;-86
2021/06/24 03:36:44;;;;;;;16.25;7.40;;;;;;;;;;5054343;28;20097;-86
2021/06/24 03:39:10;;;;;;;16.88;7.18;;;;;;;;;;5054153;28;20017;-86
2021/06/24 03:41:35;;;;;;;12.32;7.20;;;;;;;;;;5054493;28;20021;-86
2021/06/24 03:44:00;;;;;;;15.38;6.30;;;;;;;;;;5055650;28;20029;-87
2021/06/24 03:46:26;;;;;;;14.38;7.35;;;;;;;;;;5053948;28;20112;-87
2021/06/24 03:48:52;;;;;;;21.38;7.10;;;;;;;;;;5054140;28;20017;-86
2021/06/24 03:51:17;;;;;;;17.65;7.47;;;;;;;;;;5053781;28;20017;-87
2021/06/24 03:53:42;;;;;;;26.85;8.20;;;;;;;;;;5053996;28;20025;-87
2021/06/24 03:56:08;;;;;;;13.88;7.10;;;;;;;;;;5053848;28;20040;-85
2021/06/24 03:58:33;;;;;;;21.35;7.22;;;;;;;;;;5054001;28;20113;-86
2021/06/24 04:00:59;;;;;;;22.52;7.28;;;;;;;;;;5055281;28;20393;-86
2021/06/24 04:03:24;;;;;;;15.85;7.50;;;;;;;;;;5054677;28;20025;-87
2021/06/24 04:05:49;;;;;;;27.20;7.97;;;;;;;;;;5053732;28;20017;-86
2021/06/24 04:08:14;;;;;;;9.52;6.28;;;;;;;;;;5053531;28;20468;-86
2021/06/24 04:10:40;;;;;;;12.75;6.82;;;;;;;;;;5053804;28;20593;-86
2021/06/24 04:13:05;;;;;;;15.65;6.85;;;;;;;;;;5053598;28;20032;-86
2021/06/24 04:15:30;;;;;;;11.52;6.10;;;;;;;;;;5053304;28;20078;-86
2021/06/24 04:17:56;;;;;;;21.58;7.45;;;;;;;;;;5053473;28;20020;-87
2021/06/24 04:20:21;;;;;;;16.05;6.50;;;;;;;;;;5053385;28;20017;-86
2021/06/24 04:22:47;;;;;;;13.30;6.03;;;;;;;;;;5053186;28;20489;-87
2021/06/24 04:25:13;;;;;;;13.60;6.47;;;;;;;;;;5053417;28;20018;-86
2021/06/24 04:27:39;;;;;;;12.60;6.50;;;;;;;;;;5053229;28;20009;-86
2021/06/24 04:30:05;;;;;;;14.60;6.80;;;;;;;;;;5054448;28;20476;-86
2021/06/24 04:32:31;;;;;;;16.50;7.30;;;;;;;;;;5053167;28;20025;-86
2021/06/24 04:34:56;;;;;;;18.45;7.93;;;;;;;;;;5053495;28;20355;-86
2021/06/24 04:37:21;;;;;;;17.15;7.00;;;;;;;;;;5053078;28;20021;-86
2021/06/24 04:39:46;;;;;;;15.05;7.20;;;;;;;;;;5054321;28;20021;-86
2021/06/24 04:42:12;;;;;;;14.43;7.32;;;;;;;;;;5052466;28;20029;-86
2021/06/24 04:44:37;;;;;;;12.13;6.50;;;;;;;;;;5052890;28;20067;-86
2021/06/24 04:47:03;;;;;;;14.13;6.22;;;;;;;;;;5053066;28;20051;-86
2021/06/24 04:49:28;;;;;;;21.75;7.80;;;;;;;;;;5052863;28;20025;-86
2021/06/24 04:51:54;;;;;;;16.52;7.55;;;;;;;;;;5053050;28;20029;-87
2021/06/24 04:54:19;;;;;;;18.70;7.15;;;;;;;;;;5052943;28;20028;-87
2021/06/24 04:56:44;;;;;;;14.25;7.60;;;;;;;;;;5052713;28;20368;-86
2021/06/24 04:59:10;;;;;;;19.05;7.25;;;;;;;;;;5052903;28;20013;-86
2021/06/24 05:01:35;;;;;;;18.50;7.63;;;;;;;;;;5052428;28;20426;-87
2021/06/24 05:04:00;;;;;;;14.52;7.50;;;;;;;;;;5052603;28;20025;-87
2021/06/24 05:06:25;;;;;;;20.85;7.85;;;;;;;;;;5052598;28;20013;-86
2021/06/24 05:08:51;;;;;;;12.75;7.78;;;;;;;;;;5054019;28;20471;-86
2021/06/24 05:11:16;;;;;;;17.60;8.55;;;;;;;;;;5052545;28;20448;-87
2021/06/24 05:13:42;;;;;;;20.67;7.22;;;;;;;;;;5052493;28;20027;-87
2021/06/24 05:16:07;;;;;;;19.20;8.07;;;;;;;;;;5052513;28;20104;-87
2021/06/24 05:18:34;;;;;;;22.35;8.68;;;;;;;;;;5052386;28;20388;-87
2021/06/24 05:20:59;;;;;;;15.70;7.70;;;;;;;;;;5053830;28;20028;-86
2021/06/24 05:23:25;;;;;;;15.18;6.93;;;;;;;;;;5052143;28;20025;-87
2021/06/24 05:25:50;;;;;;;18.63;7.68;;;;;;;;;;5051934;28;20162;-87
2021/06/24 05:28:15;;;;;;;19.45;7.88;;;;;;;;;;5052007;28;20021;-86
2021/06/24 05:30:41;;;;;;;16.63;7.93;;;;;;;;;;5052084;28;20028;-86
2021/06/24 05:33:06;;;;;;;14.07;7.82;;;;;;;;;;5052232;28;20029;-86
2021/06/24 05:35:31;;;;;;;19.40;8.32;;;;;;;;;;5052179;28;20530;-86
2021/06/24 05:37:57;;;;;;;22.08;8.82;;;;;;;;;;5051862;28;20017;-86
2021/06/24 05:40:22;;;;;;;16.80;7.85;;;;;;;;;;5052006;28;20048;-86
2021/06/24 05:42:48;;;;;;;13.05;7.95;;;;;;;;;;5051243;28;20025;-87
2021/06/24 05:45:13;;;;;;;14.98;7.68;;;;;;;;;;5051860;28;20111;-86
2021/06/24 05:47:38;;;;;;;16.33;8.23;;;;;;;;;;5051720;28;20033;-87
2021/06/24 05:50:04;;;;;;;14.63;7.90;;;;;;;;;;5051923;28;20108;-87
2021/06/24 05:52:29;;;;;;;14.50;8.60;;;;;;;;;;5051603;28;20025;-86
2021/06/24 05:54:54;;;;;;;19.92;8.45;;;;;;;;;;5053400;28;20025;-87
2021/06/24 05:57:19;;;;;;;19.83;8.23;;;;;;;;;;5051111;28;20013;-87
2021/06/24 05:59:45;;;;;;;12.00;7.57;;;;;;;;;;5050249;28;20031;-87
2021/06/24 06:02:10;;;;;;;15.48;8.40;;;;;;;;;;5051317;28;20022;-87
2021/06/24 06:04:35;;;;;;;18.65;7.57;;;;;;;;;;5047668;28;20061;-87
2021/06/24 06:07:01;;;;;;;15.43;7.95;;;;;;;;;;5051749;28;20100;-86
2021/06/24 06:09:26;;;;;;;18.40;7.65;;;;;;;;;;5051221;28;20056;-87
2021/06/24 06:11:51;;;;;;;19.23;8.18;;;;;;;;;;5051430;28;20067;-87
2021/06/24 06:14:17;;;;;;;15.43;7.70;;;;;;;;;;5052311;28;20155;-87
2021/06/24 06:16:45;;;;;;;17.65;7.78;;;;;;;;;;5052130;28;20043;-86
2021/06/24 06:19:10;;;;;;;19.98;8.35;;;;;;;;;;5050295;28;20021;-87
2021/06/24 06:21:36;;;;;;;18.75;8.73;;;;;;;;;;5050916;28;20073;-86
2021/06/24 06:24:01;;;;;;;16.90;7.97;;;;;;;;;;5050051;28;20029;-87
2021/06/24 06:26:27;;;;;;;15.88;8.38;;;;;;;;;;5047691;28;20409;-87
2021/06/24 06:28:52;;;;;;;15.23;7.90;;;;;;;;;;5051071;28;20025;-87
2021/06/24 06:34:05;;;;;;;12.60;7.40;;;;;;;;;;5037487;28;20037;-87
2021/06/24 06:36:30;;;;;;;18.98;8.85;;;;;;;;;;5046242;28;20372;-87
2021/06/24 06:38:56;;;;;;;16.08;7.30;;;;;;;;;;5050211;28;20040;-87
2021/06/24 06:41:21;;;;;;;20.17;8.23;;;;;;;;;;5048927;28;20055;-87
2021/06/24 06:43:46;;;;;;;15.30;7.72;;;;;;;;;;5050900;28;20031;-87
2021/06/24 06:46:11;;;;;;;18.88;9.48;;;;;;;;;;5050970;28;20472;-87
2021/06/24 06:48:36;;;;;;;21.58;9.43;;;;;;;;;;5051199;28;20021;-87
2021/06/24 06:51:02;;;;;;;17.88;8.68;;;;;;;;;;5052286;28;20017;-87
2021/06/24 06:53:27;;;;;;;19.73;9.23;;;;;;;;;;5051651;28;20482;-87
2021/06/24 06:55:52;;;;;;;20.00;8.48;;;;;;;;;;5054484;28;20028;-87
2021/06/24 06:58:18;;;;;;;21.70;7.88;;;;;;;;;;5056161;28;20013;-87
2021/06/24 07:00:43;;;;;;;24.20;7.50;;;;;;;;;;5055060;28;20021;-86
2021/06/24 07:03:08;;;;;;;14.77;7.75;;;;;;;;;;5054677;28;20029;-87
2021/06/24 07:05:34;;;;;;;17.17;8.38;;;;;;;;;;5054868;28;20404;-87
2021/06/24 07:07:59;;;;;;;20.45;9.50;;;;;;;;;;5054617;28;20063;-87
2021/06/24 07:10:25;;;;;;;15.05;8.63;;;;;;;;;;5054454;28;20021;-87
2021/06/24 07:12:50;;;;;;;16.17;7.63;;;;;;;;;;5054583;28;20025;-87
2021/06/24 07:15:15;;;;;;;17.42;8.70;;;;;;;;;;5053997;28;20483;-87
2021/06/24 07:17:41;;;;;;;20.52;9.10;;;;;;;;;;5054702;28;20021;-87
2021/06/24 07:20:06;;;;;;;16.52;8.38;;;;;;;;;;5054267;28;20025;-88
2021/06/24 07:22:32;;;;;;;17.02;8.45;;;;;;;;;;5054515;28;20029;-87
2021/06/24 07:24:57;;;;;;;15.55;8.10;;;;;;;;;;5054612;28;20532;-87
2021/06/24 07:27:22;;;;;;;17.77;8.27;;;;;;;;;;5055694;28;20163;-87
2021/06/24 07:29:48;;;;;;;17.77;9.15;;;;;;;;;;5054336;28;20055;-88
2021/06/24 07:32:13;;;;;;;20.60;9.07;;;;;;;;;;5053669;28;20104;-87
2021/06/24 07:34:38;;;;;;;17.50;7.95;;;;;;;;;;5054179;28;20055;-86
2021/06/24 07:37:03;;;;;;;14.48;7.72;;;;;;;;;;5054255;28;20029;-87
2021/06/24 07:39:29;;;;;;;14.68;7.45;;;;;;;;;;5053525;28;20032;-87
2021/06/24 07:41:55;;;;;;;20.90;9.80;;;;;;;;;;5053930;28;20033;-87
2021/06/24 07:44:20;;;;;;;19.00;9.05;;;;;;;;;;5053811;28;20089;-86
2021/06/24 07:46:45;;;;;;;16.90;9.15;;;;;;;;;;5054160;28;20017;-87
2021/06/24 07:49:11;;;;;;;14.93;8.15;;;;;;;;;;5055910;28;20029;-87
2021/06/24 07:51:36;;;;;;;23.88;9.27;;;;;;;;;;5053680;28;20032;-87
2021/06/24 07:54:01;;;;;;;17.45;8.50;;;;;;;;;;5054261;28;20021;-87
2021/06/24 07:56:26;;;;;;;17.08;9.18;;;;;;;;;;5052892;28;20037;-87
2021/06/24 07:58:53;;;;;;;21.08;10.25;;;;;;;;;;5053984;28;20043;-87
2021/06/24 08:01:18;;;;;;;21.23;9.65;;;;;;;;;;5087166;28;20075;-87
2021/06/24 08:03:43;;;;;;;15.25;9.20;;;;;;;;;;5053930;28;20453;-87
2021/06/24 08:06:09;;;;;;;18.55;9.25;;;;;;;;;;5053313;28;20024;-85
2021/06/24 08:08:34;;;;;;;18.80;9.65;;;;;;;;;;5053626;28;20071;-86
2021/06/24 08:10:59;;;;;;;20.40;8.50;;;;;;;;;;5054885;28;20024;-87
2021/06/24 08:13:25;;;;;;;19.48;9.50;;;;;;;;;;5053452;28;20020;-87
2021/06/24 08:15:51;;;;;;;13.43;8.40;;;;;;;;;;5053502;28;20036;-85
2021/06/24 08:18:16;;;;;;;23.98;9.93;;;;;;;;;;5052992;28;20495;-85
2021/06/24 08:20:42;;;;;;;14.95;8.20;;;;;;;;;;5052963;28;20024;-85
2021/06/24 08:23:07;;;;;;;21.70;8.75;;;;;;;;;;5051705;28;20056;-85
2021/06/24 08:25:32;;;;;;;16.75;9.90;;;;;;;;;;5051339;28;20098;-85
2021/06/24 08:27:57;;;;;;;17.60;9.40;;;;;;;;;;5051695;28;20024;-85
2021/06/24 08:30:23;;;;;;;15.23;9.65;;;;;;;;;;5051626;28;20032;-85
2021/06/24 08:32:48;;;;;;;15.48;8.45;;;;;;;;;;5051634;28;20306;-86
2021/06/24 08:35:13;;;;;;;18.27;9.43;;;;;;;;;;5051626;28;20537;-86
2021/06/24 08:37:40;;;;;;;16.67;9.45;;;;;;;;;;5052488;28;20025;-85
2021/06/24 08:40:06;;;;;;;20.58;9.25;;;;;;;;;;5051403;28;20131;-85
2021/06/24 08:42:33;;;;;;;21.00;9.38;;;;;;;;;;5051475;28;20021;-88
2021/06/24 08:45:01;;;;;;;20.48;8.65;;;;;;;;;;5052029;28;20025;-89
2021/06/24 08:47:27;;;;;;;22.65;10.15;;;;;;;;;;5054258;28;20023;-91
2021/06/24 08:49:54;;;;;;;18.08;9.32;;;;;;;;;;5087658;28;20005;-92
2021/06/24 08:52:20;;;;;;;16.55;10.52;;;;;;;;;;5053982;28;20023;-89
2021/06/24 08:54:45;;;;;;;16.88;9.15;;;;;;;;;;5054042;28;20534;-90
2021/06/24 08:57:11;;;;;;;21.73;7.68;;;;;;;;;;5053737;28;20021;-92
2021/06/24 08:59:36;;;;;;;13.77;9.15;;;;;;;;;;5053688;28;20395;-91
2021/06/24 09:02:02;;;;;;;15.85;10.10;;;;;;;;;;5054113;28;20013;-92
2021/06/24 09:04:28;;;;;;;13.85;8.50;;;;;;;;;;5087633;28;20021;-91
2021/06/24 09:06:53;;;;;;;25.58;9.18;;;;;;;;;;5053489;28;20102;-91
2021/06/24 09:09:25;;;;;;;24.10;10.10;;;;;;;;;;5053736;28;20078;-89
2021/06/24 09:11:59;;;;;;;18.50;10.10;;;;;;;;;;5087441;28;20372;-88
2021/06/24 09:14:24;;;;;;;20.30;10.18;;;;;;;;;;5054470;28;20044;-88
2021/06/24 09:16:49;;;;;;;14.63;10.32;;;;;;;;;;5052414;28;20020;-91
2021/06/24 09:19:26;;;;;;;17.40;9.45;;;;;;;;;;5087971;28;20384;-94
2021/06/24 09:22:08;;;;;;;14.57;7.93;;;;;;;;;;5052433;28;20021;-87
2021/06/24 09:24:35;;;;;;;16.38;9.07;;;;;;;;;;5045390;28;20036;-84
2021/06/24 09:27:02;;;;;;;19.02;10.20;;;;;;;;;;5052000;28;20013;-84
2021/06/24 09:29:28;;;;;;;21.90;10.55;;;;;;;;;;5085095;28;20096;-84
2021/06/24 09:31:57;;;;;;;23.58;10.65;;;;;;;;;;5085256;28;20116;-84
2021/06/24 09:34:22;;;;;;;16.10;10.00;;;;;;;;;;5084965;28;20067;-83
2021/06/24 09:36:52;;;;;;;15.90;9.00;;;;;;;;;;5052951;28;20025;-84
2021/06/24 09:39:45;;;;;;;21.60;10.15;;;;;;;;;;5051049;28;20449;-84
2021/06/24 09:42:11;;;;;;;26.75;11.13;;;;;;;;;;5085150;28;20029;-83
2021/06/24 09:44:37;;;;;;;18.33;10.15;;;;;;;;;;5084661;28;20021;-84
2021/06/24 09:47:13;;;;;;;23.05;10.73;;;;;;;;;;5082789;28;20024;-84
2021/06/24 09:49:39;;;;;;;21.25;10.15;;;;;;;;;;5051925;28;21818;-84
2021/06/24 09:52:05;;;;;;;20.13;9.15;;;;;;;;;;5075041;28;20029;-84
2021/06/24 09:54:35;;;;;;;15.55;8.70;;;;;;;;;;5050428;28;20108;-84
2021/06/24 09:57:03;;;;;;;22.77;10.95;;;;;;;;;;5050710;28;20017;-84
2021/06/24 09:59:33;;;;;;;19.83;12.13;;;;;;;;;;5050868;28;20020;-85
2021/06/24 10:02:04;;;;;;;29.10;13.40;;;;;;;;;;5083240;28;20017;-84
2021/06/24 10:04:31;;;;;;;20.98;11.75;;;;;;;;;;5050654;28;20112;-84
2021/06/24 10:06:58;;;;;;;18.13;10.20;;;;;;;;;;5051024;28;20016;-83
2021/06/24 10:09:24;;;;;;;25.35;12.18;;;;;;;;;;5051727;28;20024;-83
2021/06/24 10:11:49;;;;;;;21.33;11.15;;;;;;;;;;5050002;28;20380;-84
2021/06/24 10:14:15;;;;;;;26.20;12.68;;;;;;;;;;5050910;28;20025;-84
2021/06/24 10:16:42;;;;;;;21.42;11.48;;;;;;;;;;5084696;28;20021;-84
2021/06/24 10:19:07;;;;;;;15.43;11.18;;;;;;;;;;5084649;28;20472;-83
2021/06/24 10:21:34;;;;;;;18.60;10.30;;;;;;;;;;5051008;28;20024;-84
2021/06/24 10:24:01;;;;;;;16.10;11.15;;;;;;;;;;5084127;28;20039;-83
2021/06/24 10:26:27;;;;;;;17.05;10.55;;;;;;;;;;5051605;28;20025;-83
2021/06/24 10:29:12;;;;;;;15.63;10.45;;;;;;;;;;5051758;28;20024;-85
2021/06/24 10:31:38;;;;;;;18.25;9.65;;;;;;;;;;5039340;28;20479;-83
2021/06/24 10:34:04;;;;;;;25.40;11.98;;;;;;;;;;5037716;28;20018;-84
2021/06/24 10:36:30;;;;;;;20.80;10.57;;;;;;;;;;5084303;28;20029;-84
2021/06/24 10:38:57;;;;;;;20.00;10.80;;;;;;;;;;5051446;28;20049;-84
2021/06/24 10:41:22;;;;;;;28.55;12.02;;;;;;;;;;5083279;28;20032;-84
2021/06/24 10:43:49;;;;;;;24.23;12.00;;;;;;;;;;5050257;28;20021;-84
2021/06/24 10:46:16;;;;;;;19.02;11.02;;;;;;;;;;5049834;28;20025;-84
2021/06/24 10:48:41;;;;;;;17.48;10.65;;;;;;;;;;5084137;28;20021;-84
2021/06/24 10:51:08;;;;;;;22.33;9.77;;;;;;;;;;5084231;28;20067;-84
2021/06/24 10:53:33;;;;;;;19.63;10.48;;;;;;;;;;5049087;28;20059;-83
2021/06/24 10:55:58;;;;;;;17.92;10.90;;;;;;;;;;5050297;28;20054;-84
2021/06/24 10:58:27;;;;;;;21.73;11.55;;;;;;;;;;5049910;28;20040;-82
2021/06/24 11:00:56;;;;;;;26.23;12.10;;;;;;;;;;5050226;28;20032;-83
2021/06/24 11:03:25;;;;;;;19.25;10.82;;;;;;;;;;5051628;28;20017;-83
2021/06/24 11:05:51;;;;;;;16.25;10.80;;;;;;;;;;5082303;28;20073;-83
2021/06/24 11:08:34;;;;;;;22.67;10.40;;;;;;;;;;5050802;28;20048;-84
2021/06/24 11:10:59;;;;;;;20.77;10.65;;;;;;;;;;5051133;28;20376;-84
2021/06/24 11:16:02;;;;;;;18.10;9.68;;;;;;;;;;5049466;28;20745;-84
2021/06/24 11:18:30;;;;;;;24.15;9.20;;;;;;;;;;5049558;28;20120;-84
2021/06/24 11:20:56;;;;;;;20.48;9.75;;;;;;;;;;5041353;28;20026;-83
2021/06/24 11:23:25;;;;;;;15.57;8.73;;;;;;;;;;5046985;28;20032;-84
2021/06/24 11:26:09;;;;;;;12.55;7.45;;;;;;;;;;5050326;28;20711;-84
2021/06/24 11:28:52;;;;;;;10.43;6.03;;;;;;;;;;5048698;28;20128;-84
2021/06/24 11:31:20;;;;;;;11.63;4.70;;;;;;;;;;5048099;28;20669;-85
2021/06/24 11:36:53;;;;;;;13.15;5.25;;;;;;;;;;5042321;28;20071;-85
2021/06/24 11:39:23;;;;;;;9.88;6.00;;;;;;;;;;5045981;28;20465;-84
2021/06/24 11:41:55;;;;;;;12.40;7.18;;;;;;;;;;5054032;28;20372;-85
2021/06/24 11:44:31;;;;;;;13.85;8.35;;;;;;;;;;5048067;28;20070;-84
2021/06/24 11:46:57;;;;;;;17.80;9.02;;;;;;;;;;5054186;28;20460;-83
2021/06/24 12:00:36;;;;;;;25.95;11.63;;;;;;;;;;5055321;28;20423;-85
2021/06/24 12:03:08;;;;;;;16.90;9.93;;;;;;;;;;5082253;28;20017;-85
2021/06/24 12:05:38;;;;;;;23.40;9.98;;;;;;;;;;5053876;28;20017;-84
2021/06/24 12:08:03;;;;;;;19.35;10.55;;;;;;;;;;5053922;28;20021;-84
2021/06/24 12:10:29;;;;;;;22.70;11.13;;;;;;;;;;5086918;28;20028;-84
2021/06/24 12:12:54;;;;;;;15.98;10.07;;;;;;;;;;5083917;28;20047;-84
2021/06/24 12:15:19;;;;;;;23.30;9.45;;;;;;;;;;5053456;28;20107;-84
2021/06/24 12:17:45;;;;;;;19.02;10.13;;;;;;;;;;5050949;28;20025;-85
2021/06/24 12:20:15;;;;;;;17.08;9.73;;;;;;;;;;5043532;28;20606;-85
2021/06/24 12:22:43;;;;;;;19.05;11.05;;;;;;;;;;5052535;28;20035;-84
2021/06/24 12:25:10;;;;;;;17.50;9.77;;;;;;;;;;5052603;28;20416;-84
2021/06/24 12:27:38;;;;;;;16.17;9.35;;;;;;;;;;5047761;28;20036;-84
2021/06/24 12:30:11;;;;;;;15.23;8.05;;;;;;;;;;5045950;28;20526;-85
2021/06/24 12:32:37;;;;;;;20.27;10.73;;;;;;;;;;5052574;28;20021;-85
2021/06/24 12:35:03;;;;;;;24.00;9.77;;;;;;;;;;5083308;28;20487;-85
2021/06/24 12:37:34;;;;;;;18.67;9.55;;;;;;;;;;5052945;28;20021;-84
2021/06/24 12:40:00;;;;;;;27.17;9.68;;;;;;;;;;5040769;28;20046;-84
2021/06/24 12:42:25;;;;;;;23.88;11.25;;;;;;;;;;5052966;28;20392;-84
2021/06/24 12:44:51;;;;;;;24.50;10.60;;;;;;;;;;5085903;28;20023;-84
2021/06/24 12:47:32;;;;;;;19.67;11.27;;;;;;;;;;5086458;28;20012;-84
2021/06/24 12:50:07;;;;;;;24.47;11.27;;;;;;;;;;5086592;28;20431;-83
2021/06/24 12:52:33;;;;;;;27.13;11.82;;;;;;;;;;5085735;28;20422;-84
2021/06/24 12:54:58;;;;;;;21.27;10.88;;;;;;;;;;5076570;28;20025;-83
2021/06/24 12:57:24;;;;;;;19.70;10.98;;;;;;;;;;5052572;28;20075;-83
2021/06/24 12:59:49;;;;;;;23.85;10.68;;;;;;;;;;5054123;28;20495;-83
2021/06/24 13:02:14;;;;;;;20.77;11.88;;;;;;;;;;5086346;28;20100;-83
2021/06/24 13:04:40;;;;;;;20.77;12.23;;;;;;;;;;5066906;28;20028;-83
2021/06/24 13:07:06;;;;;;;22.73;12.38;;;;;;;;;;5053460;28;20024;-83
2021/06/24 13:09:31;;;;;;;28.23;13.07;;;;;;;;;;5052751;28;20025;-83
2021/06/24 13:11:57;;;;;;;24.67;12.10;;;;;;;;;;5063206;28;20024;-84
2021/06/24 13:14:26;;;;;;;23.80;11.88;;;;;;;;;;5052230;28;20032;-84
2021/06/24 13:16:53;;;;;;;22.63;13.07;;;;;;;;;;5052467;28;20029;-83
2021/06/24 13:19:18;;;;;;;22.25;12.65;;;;;;;;;;5051576;28;20044;-83
2021/06/24 13:21:53;;;;;;;22.48;11.98;;;;;;;;;;5052102;28;20427;-84
2021/06/24 13:24:18;;;;;;;26.33;12.63;;;;;;;;;;5084201;28;20469;-83
2021/06/24 13:26:43;;;;;;;17.42;10.93;;;;;;;;;;5084669;28;20036;-83
2021/06/24 13:29:19;;;;;;;20.38;10.38;;;;;;;;;;5051840;28;20025;-84
2021/06/24 13:31:45;;;;;;;20.15;11.48;;;;;;;;;;5085746;28;20048;-84
2021/06/24 13:34:11;;;;;;;24.23;12.13;;;;;;;;;;5085383;28;20461;-84
2021/06/24 13:36:37;;;;;;;23.88;12.05;;;;;;;;;;5085507;28;20431;-83
2021/06/24 13:39:04;;;;;;;23.10;10.50;;;;;;;;;;5053057;28;20017;-84
2021/06/24 13:41:30;;;;;;;26.88;11.77;;;;;;;;;;5083203;28;20031;-84
2021/06/24 13:44:12;;;;;;;28.90;12.35;;;;;;;;;;5083657;28;20029;-84
2021/06/24 13:46:38;;;;;;;20.05;10.75;;;;;;;;;;5050725;28;20021;-84
2021/06/24 13:49:05;;;;;;;23.00;13.23;;;;;;;;;;5050959;28;20032;-84
2021/06/24 13:51:30;;;;;;;22.05;11.00;;;;;;;;;;5037705;28;20021;-84
2021/06/24 13:54:00;;;;;;;19.77;11.13;;;;;;;;;;5084976;28;20036;-83
2021/06/24 13:56:25;;;;;;;21.17;10.85;;;;;;;;;;5051260;28;20033;-84
2021/06/24 13:58:51;;;;;;;21.67;11.02;;;;;;;;;;5052440;28;20020;-84
2021/06/24 14:01:16;;;;;;;20.63;10.38;;;;;;;;;;5084494;28;20117;-84
2021/06/24 14:03:43;;;;;;;23.48;11.57;;;;;;;;;;5050684;28;20032;-84
2021/06/24 14:06:09;;;;;;;24.08;12.05;;;;;;;;;;5052090;28;20045;-83
2021/06/24 14:08:35;;;;;;;24.40;12.68;;;;;;;;;;5037279;28;20534;-84
2021/06/24 14:11:00;;;;;;;21.38;11.60;;;;;;;;;;5052666;28;20090;-84
2021/06/24 14:13:26;;;;;;;16.95;10.70;;;;;;;;;;5050852;28;20029;-83
2021/06/24 14:15:51;;;;;;;29.45;13.13;;;;;;;;;;5051103;28;20039;-85
2021/06/24 14:18:16;;;;;;;26.45;13.10;;;;;;;;;;5052616;28;20029;-84
2021/06/24 14:20:42;;;;;;;24.33;13.80;;;;;;;;;;5080294;28;20028;-85
2021/06/24 14:23:07;;;;;;;23.08;13.52;;;;;;;;;;5043071;28;20562;-84
2021/06/24 14:25:33;;;;;;;21.27;12.48;;;;;;;;;;5050717;28;20376;-84
2021/06/24 14:27:58;;;;;;;19.35;11.85;;;;;;;;;;5039293;28;20019;-84
2021/06/24 14:30:24;;;;;;;24.23;12.43;;;;;;;;;;5051272;28;20108;-84
2021/06/24 14:32:49;;;;;;;22.10;12.38;;;;;;;;;;5084652;28;20009;-84
2021/06/24 14:35:14;;;;;;;19.88;9.10;;;;;;;;;;5084943;28;20078;-85
2021/06/24 14:37:39;;;;;;;22.08;12.02;;;;;;;;;;5050898;28;20034;-84
2021/06/24 14:40:05;;;;;;;22.40;13.05;;;;;;;;;;5052642;28;20063;-84